Flight Track Log - Related Links

Times and Time Zones

All times are in EDT time to prevent confusion due to time zone crossing. See the CCA1515 flight status page for this flight to view local times or setup timezone preferences in your user account.

Time Position Orientation Groundspeed Altitude Reporting Facility
EDT Latitude Longitude Course Direction KTS MPH feet Rate Location/Type
Fri 03:54:12 AM 40.0970 116.6120 359° North 177 204 2,000  Level FlightAware ADS-B
Fri 03:54:37 AM 40.1160 116.6120 360° North 177 204 2,000 169 Level FlightAware ADS-B
Fri 03:57:00 AM 39.9181 116.7307 155° Southeast  Level Estimated
Fri 03:58:00 AM 39.8350 116.7803 155° Southeast  Level Estimated
Fri 03:59:00 AM 39.7519 116.8297 155° Southeast  Level Estimated
Fri 04:00:00 AM 39.6688 116.8791 155° Southeast  Level Estimated
Fri 04:01:00 AM 39.5856 116.9283 155° Southeast  Level Estimated
Fri 04:02:00 AM 39.5025 116.9774 155° Southeast  Level Estimated
Fri 04:03:00 AM 39.4193 117.0264 156° South  Level Estimated
Fri 04:04:00 AM 39.3361 117.0753 156° South  Level Estimated
Fri 04:05:00 AM 39.2528 117.1241 156° South  Level Estimated
Fri 04:06:00 AM 39.1696 117.1727 156° South  Level Estimated
Fri 04:07:00 AM 39.0863 117.2213 156° South  Level Estimated
Fri 04:08:00 AM 39.0030 117.2697 156° South  Level Estimated
Fri 04:09:00 AM 38.9197 117.3180 156° South  Level Estimated
Fri 04:10:00 AM 38.8364 117.3662 156° South  Level Estimated
Fri 04:11:00 AM 38.7530 117.4142 156° South  Level Estimated
Fri 04:12:00 AM 38.6697 117.4622 156° South  Level Estimated
Fri 04:13:00 AM 38.5863 117.5101 156° South  Level Estimated
Fri 04:14:00 AM 38.5029 117.5578 156° South  Level Estimated
Fri 04:15:00 AM 38.4194 117.6054 156° South  Level Estimated
Fri 04:16:00 AM 38.3360 117.6530 156° South  Level Estimated
Fri 04:17:00 AM 38.2525 117.7004 156° South  Level Estimated
Fri 04:18:00 AM 38.1690 117.7477 156° South  Level Estimated
Fri 04:19:00 AM 38.0855 117.7949 156° South  Level Estimated
Fri 04:20:00 AM 38.0020 117.8420 156° South  Level Estimated
Fri 04:21:00 AM 37.9185 117.8889 156° South  Level Estimated
Fri 04:22:00 AM 37.8349 117.9358 156° South  Level Estimated
Fri 04:23:00 AM 37.7514 117.9826 156° South  Level Estimated
Fri 04:24:00 AM 37.6678 118.0293 156° South  Level Estimated
Fri 04:25:00 AM 37.5841 118.0758 156° South  Level Estimated
Fri 04:26:00 AM 37.5005 118.1223 156° South  Level Estimated
Fri 04:27:00 AM 37.4169 118.1686 156° South  Level Estimated
Fri 04:28:00 AM 37.3332 118.2149 156° South  Level Estimated
Fri 04:29:00 AM 37.2495 118.2610 156° South  Level Estimated
Fri 04:30:00 AM 37.1658 118.3071 156° South  Level Estimated
Fri 04:31:00 AM 37.0821 118.3530 156° South  Level Estimated
Fri 04:32:00 AM 36.9983 118.3988 156° South  Level Estimated
Fri 04:33:00 AM 36.9146 118.4446 156° South  Level Estimated
Fri 04:34:00 AM 36.8308 118.4902 156° South  Level Estimated
Fri 04:35:00 AM 36.7470 118.5358 156° South  Level Estimated
Fri 04:36:00 AM 36.6632 118.5812 156° South  Level Estimated
Fri 04:37:00 AM 36.5794 118.6265 157° South  Level Estimated
Fri 04:38:00 AM 36.4955 118.6718 157° South  Level Estimated
Fri 04:39:00 AM 36.4117 118.7169 157° South  Level Estimated
Fri 04:40:00 AM 36.3278 118.7620 157° South  Level Estimated
Fri 04:41:00 AM 36.2439 118.8069 157° South  Level Estimated
Fri 04:42:00 AM 36.1600 118.8518 157° South  Level Estimated
Fri 04:43:00 AM 36.0761 118.8965 157° South  Level Estimated
Fri 04:44:00 AM 35.9921 118.9412 157° South  Level Estimated
Fri 04:45:00 AM 35.9082 118.9857 157° South  Level Estimated
Fri 04:46:00 AM 35.8242 119.0302 157° South  Level Estimated
Fri 04:47:00 AM 35.7402 119.0746 157° South  Level Estimated
Fri 04:48:00 AM 35.6562 119.1189 157° South  Level Estimated
Fri 04:49:00 AM 35.5722 119.1631 157° South  Level Estimated
Fri 04:50:00 AM 35.4881 119.2072 157° South  Level Estimated
Fri 04:51:00 AM 35.4041 119.2512 157° South  Level Estimated
Fri 04:52:00 AM 35.3200 119.2951 157° South  Level Estimated
Fri 04:53:00 AM 35.2359 119.3389 157° South  Level Estimated
Fri 04:54:00 AM 35.1518 119.3826 157° South  Level Estimated
Fri 04:55:00 AM 35.0677 119.4263 157° South  Level Estimated
Fri 04:56:00 AM 34.9835 119.4698 157° South  Level Estimated
Fri 04:57:00 AM 34.8994 119.5133 157° South  Level Estimated
Fri 04:58:00 AM 34.8152 119.5567 157° South  Level Estimated
Fri 04:59:00 AM 34.7310 119.6000 157° South  Level Estimated
Fri 05:00:00 AM 34.6468 119.6432 157° South  Level Estimated
Fri 05:01:00 AM 34.5626 119.6863 157° South  Level Estimated
Fri 05:02:00 AM 34.4784 119.7293 157° South  Level Estimated
Fri 05:03:00 AM 34.3942 119.7722 157° South  Level Estimated
Fri 05:04:00 AM 34.3099 119.8151 157° South  Level Estimated
Fri 05:05:00 AM 34.2256 119.8578 157° South  Level Estimated
Fri 05:06:00 AM 34.1413 119.9005 157° South  Level Estimated
Fri 05:07:00 AM 34.0570 119.9431 157° South  Level Estimated
Fri 05:08:00 AM 33.9727 119.9856 157° South  Level Estimated
Fri 05:09:00 AM 33.8884 120.0280 157° South  Level Estimated
Fri 05:10:00 AM 33.8040 120.0704 157° South  Level Estimated
Fri 05:10:02 AM 31.8330 120.0580 157° South 340 391 14,800  Level FlightAware ADS-B
Fri 05:11:00 AM 33.7197 120.1126 157° South  Level Estimated
Fri 05:11:02 AM 31.7590 120.1440 135° Southeast 365 420 14,800  Level FlightAware ADS-B
Fri 05:11:42 AM 31.7100 120.1980 137° Southeast 329 379 14,800  Level FlightAware ADS-B
Fri 05:12:27 AM 31.6610 120.2510 137° Southeast 312 359 14,800  Level FlightAware ADS-B
Fri 05:13:07 AM 31.6170 120.2990 137° Southeast 316 364 14,800  Level FlightAware ADS-B
Fri 05:13:52 AM 31.5790 120.3640 124° Southeast 336 387 14,800 -212 Level FlightAware ADS-B
Fri 05:14:32 AM 31.5580 120.4330 110° East 334 384 14,500 -900 Descending FlightAware ADS-B
Fri 05:15:12 AM 31.5380 120.5010 109° East 330 380 13,600 -1,271 Descending FlightAware ADS-B
Fri 05:15:57 AM 31.5150 120.5770 110° East 323 372 12,700 -1,200 Descending FlightAware ADS-B
Fri 05:16:37 AM 31.4950 120.6420 110° East 318 366 11,900 -675 Descending FlightAware ADS-B
Fri 05:17:17 AM 31.4750 120.7080 110° East 315 362 11,800 -71 Descending FlightAware ADS-B
Fri 05:18:02 AM 31.4520 120.7800 111° Southeast 316 364 11,800  Level FlightAware ADS-B
Fri 05:18:42 AM 31.4320 120.8450 110° East 314 361 11,800 -282 Level FlightAware ADS-B
Fri 05:19:27 AM 31.4100 120.9180 109° East 313 360 11,400 -776 Descending FlightAware ADS-B
Fri 05:20:07 AM 31.3900 120.9810 110° East 307 353 10,700 -918 Descending FlightAware ADS-B
Fri 05:20:52 AM 31.3700 121.0490 109° East 289 333 10,100 -943 Descending FlightAware ADS-B
Fri 05:21:17 AM 31.3590 121.0870 109° East 287 330 9,600 -1,200 Descending FlightAware ADS-B
Fri 05:21:47 AM 31.3460 121.1270 111° Southeast 287 330 9,000 -1,200 Descending FlightAware ADS-B
Fri 05:22:12 AM 31.3340 121.1670 109° East 287 330 8,500 -873 Descending FlightAware ADS-B
Fri 05:22:42 AM 31.3170 121.2060 117° Southeast 268 308 8,200 -667 Descending FlightAware ADS-B
Fri 05:22:57 AM 31.3010 121.2190 145° Southeast 264 304 8,000 -800 Descending FlightAware ADS-B
Fri 05:23:12 AM 31.2850 121.2230 168° South 245 282 7,800 -600 Descending FlightAware ADS-B
Fri 05:23:37 AM 31.2550 121.2250 177° South 242 278 7,600 -545 Descending FlightAware ADS-B
Fri 05:24:07 AM 31.2230 121.2260 178° South 228 262 7,300 -764 Descending FlightAware ADS-B
Fri 05:24:32 AM 31.1970 121.2270 178° South 213 245 6,900 -480 Descending FlightAware ADS-B
Fri 05:24:57 AM 31.1740 121.2290 176° South 213 245 6,900 -750 Level FlightAware ADS-B
Fri 05:25:12 AM 31.1600 121.2290 180° South 213 245 6,400 -1,200 Descending FlightAware ADS-B
Fri 05:25:37 AM 31.1340 121.2300 178° South 207 238 6,100 -720 Descending FlightAware ADS-B
Fri 05:26:02 AM 31.1110 121.2310 178° South 194 223 5,800 -873 Descending FlightAware ADS-B
Fri 05:26:32 AM 31.0860 121.2310 180° South 180 207 5,300 -554 Descending FlightAware ADS-B
Fri 05:27:07 AM 31.0600 121.2310 180° South 180 207 5,200 -473 Descending FlightAware ADS-B
Fri 05:28:57 AM 30.9620 121.2310 33° Northeast 4,300 -554 Descending FlightAware ADS-B
Fri 05:29:00 AM 31.1979 121.3363 33° Northeast  Level Estimated
Fri 05:29:17 AM 30.9510 121.2440 135° Southeast 166 191 4,000  Level FlightAware ADS-B
Fri 05:29:42 AM 30.9470 121.2670 101° East 164 189 3,700 -500 Descending FlightAware ADS-B
Fri 05:30:17 AM 30.9440 121.2970 97° East 167 192 3,500 -427 Descending FlightAware ADS-B
Fri 05:32:00 AM 31.0995 121.3211 North  Level Estimated
Fri 05:32:42 AM 31.0260 121.3460 North 2,100  Level FlightAware ADS-B
Fri 05:33:27 AM 31.0580 121.3440 357° North 147 169 2,100  Level FlightAware ADS-B
Fri 05:34:02 AM 31.0830 121.3420 356° North 147 169 2,100  Level FlightAware ADS-B
Fri 05:36:00 AM 31.1979 121.3363 358° North  Level Estimated
Fri 05:37:00 AM 31.1979 121.3363 190° South  Level Estimated

Login

Don't have an account? Register now (free) for customized features, flight alerts, and more!